sensor_id;sensor_type;location;lat;lon;timestamp;P1;durP1;ratioP1;P2;durP2;ratioP2
20758;SDS011;10539;53.686;9.158;2023-05-15T00:00:59;11.23;;;6.27;;
20758;SDS011;10539;53.686;9.158;2023-05-15T00:03:25;11.00;;;5.90;;
20758;SDS011;10539;53.686;9.158;2023-05-15T00:05:51;7.57;;;5.57;;
20758;SDS011;10539;53.686;9.158;2023-05-15T00:08:18;10.30;;;6.03;;
20758;SDS011;10539;53.686;9.158;2023-05-15T00:10:43;12.33;;;6.03;;
20758;SDS011;10539;53.686;9.158;2023-05-15T00:13:09;11.00;;;6.77;;
20758;SDS011;10539;53.686;9.158;2023-05-15T00:15:35;7.17;;;5.70;;
20758;SDS011;10539;53.686;9.158;2023-05-15T00:18:01;7.97;;;6.77;;
20758;SDS011;10539;53.686;9.158;2023-05-15T00:20:27;8.80;;;6.00;;
20758;SDS011;10539;53.686;9.158;2023-05-15T00:22:52;10.20;;;6.60;;
20758;SDS011;10539;53.686;9.158;2023-05-15T00:25:18;7.70;;;6.40;;
20758;SDS011;10539;53.686;9.158;2023-05-15T00:27:44;8.57;;;6.17;;
20758;SDS011;10539;53.686;9.158;2023-05-15T00:30:10;9.13;;;6.50;;
20758;SDS011;10539;53.686;9.158;2023-05-15T00:32:37;12.03;;;6.27;;
20758;SDS011;10539;53.686;9.158;2023-05-15T00:35:04;8.20;;;6.67;;
20758;SDS011;10539;53.686;9.158;2023-05-15T00:37:30;12.00;;;6.57;;
20758;SDS011;10539;53.686;9.158;2023-05-15T00:39:56;13.13;;;6.83;;
20758;SDS011;10539;53.686;9.158;2023-05-15T00:42:22;11.23;;;7.20;;
20758;SDS011;10539;53.686;9.158;2023-05-15T00:44:49;8.70;;;7.10;;
20758;SDS011;10539;53.686;9.158;2023-05-15T00:47:16;9.60;;;6.73;;
20758;SDS011;10539;53.686;9.158;2023-05-15T00:49:44;11.37;;;7.53;;
20758;SDS011;10539;53.686;9.158;2023-05-15T00:52:11;9.60;;;7.07;;
20758;SDS011;10539;53.686;9.158;2023-05-15T00:54:38;12.43;;;7.53;;
20758;SDS011;10539;53.686;9.158;2023-05-15T00:57:04;10.00;;;7.00;;
20758;SDS011;10539;53.686;9.158;2023-05-15T00:59:31;11.00;;;7.13;;
20758;SDS011;10539;53.686;9.158;2023-05-15T01:01:57;9.73;;;7.23;;
20758;SDS011;10539;53.686;9.158;2023-05-15T01:04:23;9.63;;;6.97;;
20758;SDS011;10539;53.686;9.158;2023-05-15T01:06:49;11.20;;;7.47;;
20758;SDS011;10539;53.686;9.158;2023-05-15T01:09:18;10.87;;;7.47;;
20758;SDS011;10539;53.686;9.158;2023-05-15T01:11:45;8.90;;;8.00;;
20758;SDS011;10539;53.686;9.158;2023-05-15T01:14:11;8.80;;;6.87;;
20758;SDS011;10539;53.686;9.158;2023-05-15T01:16:37;11.97;;;7.63;;
20758;SDS011;10539;53.686;9.158;2023-05-15T01:19:03;9.13;;;7.60;;
20758;SDS011;10539;53.686;9.158;2023-05-15T01:24:05;10.90;;;7.40;;
20758;SDS011;10539;53.686;9.158;2023-05-15T01:29:43;10.00;;;7.07;;
20758;SDS011;10539;53.686;9.158;2023-05-15T01:35:22;10.87;;;7.20;;
20758;SDS011;10539;53.686;9.158;2023-05-15T01:38:12;9.97;;;7.53;;
20758;SDS011;10539;53.686;9.158;2023-05-15T01:40:43;11.43;;;7.70;;
20758;SDS011;10539;53.686;9.158;2023-05-15T01:43:15;10.80;;;8.10;;
20758;SDS011;10539;53.686;9.158;2023-05-15T01:45:45;8.50;;;7.40;;
20758;SDS011;10539;53.686;9.158;2023-05-15T01:48:11;11.23;;;8.37;;
20758;SDS011;10539;53.686;9.158;2023-05-15T01:50:38;12.53;;;8.30;;
20758;SDS011;10539;53.686;9.158;2023-05-15T01:53:07;12.93;;;9.23;;
20758;SDS011;10539;53.686;9.158;2023-05-15T01:55:34;18.63;;;9.43;;
20758;SDS011;10539;53.686;9.158;2023-05-15T01:58:01;11.53;;;9.50;;
20758;SDS011;10539;53.686;9.158;2023-05-15T02:00:28;12.50;;;9.10;;
20758;SDS011;10539;53.686;9.158;2023-05-15T02:02:55;13.10;;;9.20;;
20758;SDS011;10539;53.686;9.158;2023-05-15T02:05:21;14.73;;;9.57;;
20758;SDS011;10539;53.686;9.158;2023-05-15T02:07:48;12.90;;;9.50;;
20758;SDS011;10539;53.686;9.158;2023-05-15T02:10:14;15.07;;;9.70;;
20758;SDS011;10539;53.686;9.158;2023-05-15T02:12:41;14.50;;;9.40;;
20758;SDS011;10539;53.686;9.158;2023-05-15T02:15:08;11.13;;;8.97;;
20758;SDS011;10539;53.686;9.158;2023-05-15T02:17:35;12.57;;;9.00;;
20758;SDS011;10539;53.686;9.158;2023-05-15T02:20:01;14.97;;;9.40;;
20758;SDS011;10539;53.686;9.158;2023-05-15T02:22:29;11.47;;;9.80;;
20758;SDS011;10539;53.686;9.158;2023-05-15T02:24:55;14.93;;;10.23;;
20758;SDS011;10539;53.686;9.158;2023-05-15T02:30:01;14.63;;;10.50;;
20758;SDS011;10539;53.686;9.158;2023-05-15T02:32:44;14.57;;;10.90;;
20758;SDS011;10539;53.686;9.158;2023-05-15T02:35:21;14.17;;;10.93;;
20758;SDS011;10539;53.686;9.158;2023-05-15T02:37:57;14.33;;;11.13;;
20758;SDS011;10539;53.686;9.158;2023-05-15T02:40:26;14.17;;;10.73;;
20758;SDS011;10539;53.686;9.158;2023-05-15T02:42:53;14.80;;;11.33;;
20758;SDS011;10539;53.686;9.158;2023-05-15T02:45:20;16.37;;;11.57;;
20758;SDS011;10539;53.686;9.158;2023-05-15T02:47:48;14.90;;;11.70;;
20758;SDS011;10539;53.686;9.158;2023-05-15T02:50:15;17.47;;;11.87;;
20758;SDS011;10539;53.686;9.158;2023-05-15T02:52:42;16.40;;;11.73;;
20758;SDS011;10539;53.686;9.158;2023-05-15T02:55:08;14.00;;;11.67;;
20758;SDS011;10539;53.686;9.158;2023-05-15T02:57:34;13.93;;;11.50;;
20758;SDS011;10539;53.686;9.158;2023-05-15T03:00:00;14.37;;;11.80;;
20758;SDS011;10539;53.686;9.158;2023-05-15T03:02:29;16.20;;;12.00;;
20758;SDS011;10539;53.686;9.158;2023-05-15T03:04:55;20.27;;;11.53;;
20758;SDS011;10539;53.686;9.158;2023-05-15T03:07:20;15.63;;;12.50;;
20758;SDS011;10539;53.686;9.158;2023-05-15T03:09:46;13.73;;;12.17;;
20758;SDS011;10539;53.686;9.158;2023-05-15T03:12:12;15.97;;;12.27;;
20758;SDS011;10539;53.686;9.158;2023-05-15T03:14:38;19.10;;;12.97;;
20758;SDS011;10539;53.686;9.158;2023-05-15T03:17:03;17.43;;;12.70;;
20758;SDS011;10539;53.686;9.158;2023-05-15T03:19:29;16.87;;;12.53;;
20758;SDS011;10539;53.686;9.158;2023-05-15T03:21:55;16.00;;;12.87;;
20758;SDS011;10539;53.686;9.158;2023-05-15T03:24:21;17.97;;;12.93;;
20758;SDS011;10539;53.686;9.158;2023-05-15T03:26:46;18.93;;;13.73;;
20758;SDS011;10539;53.686;9.158;2023-05-15T03:29:12;19.00;;;13.87;;
20758;SDS011;10539;53.686;9.158;2023-05-15T03:31:38;17.57;;;13.77;;
20758;SDS011;10539;53.686;9.158;2023-05-15T03:34:05;20.13;;;13.97;;
20758;SDS011;10539;53.686;9.158;2023-05-15T03:36:31;17.20;;;13.80;;
20758;SDS011;10539;53.686;9.158;2023-05-15T03:38:57;17.87;;;14.10;;
20758;SDS011;10539;53.686;9.158;2023-05-15T03:41:23;18.73;;;14.20;;
20758;SDS011;10539;53.686;9.158;2023-05-15T03:43:50;17.73;;;14.27;;
20758;SDS011;10539;53.686;9.158;2023-05-15T03:46:15;18.60;;;14.80;;
20758;SDS011;10539;53.686;9.158;2023-05-15T03:48:41;21.73;;;14.83;;
20758;SDS011;10539;53.686;9.158;2023-05-15T03:51:07;23.10;;;14.93;;
20758;SDS011;10539;53.686;9.158;2023-05-15T03:53:33;17.03;;;13.93;;
20758;SDS011;10539;53.686;9.158;2023-05-15T03:55:59;18.97;;;14.10;;
20758;SDS011;10539;53.686;9.158;2023-05-15T03:58:24;22.57;;;14.30;;
20758;SDS011;10539;53.686;9.158;2023-05-15T04:00:50;20.00;;;14.57;;
20758;SDS011;10539;53.686;9.158;2023-05-15T04:03:16;21.53;;;15.00;;
20758;SDS011;10539;53.686;9.158;2023-05-15T04:05:43;18.30;;;14.27;;
20758;SDS011;10539;53.686;9.158;2023-05-15T04:08:08;22.97;;;15.00;;
20758;SDS011;10539;53.686;9.158;2023-05-15T04:10:36;21.43;;;15.53;;
20758;SDS011;10539;53.686;9.158;2023-05-15T04:13:02;18.10;;;14.63;;
20758;SDS011;10539;53.686;9.158;2023-05-15T04:15:28;19.27;;;13.73;;
20758;SDS011;10539;53.686;9.158;2023-05-15T04:17:53;22.20;;;14.83;;
20758;SDS011;10539;53.686;9.158;2023-05-15T04:20:20;20.23;;;14.80;;
20758;SDS011;10539;53.686;9.158;2023-05-15T04:22:47;18.83;;;15.33;;
20758;SDS011;10539;53.686;9.158;2023-05-15T04:25:13;19.10;;;14.23;;
20758;SDS011;10539;53.686;9.158;2023-05-15T04:27:40;19.63;;;15.37;;
20758;SDS011;10539;53.686;9.158;2023-05-15T04:30:07;15.80;;;13.50;;
20758;SDS011;10539;53.686;9.158;2023-05-15T04:32:34;19.70;;;13.93;;
20758;SDS011;10539;53.686;9.158;2023-05-15T04:35:00;19.57;;;14.17;;
20758;SDS011;10539;53.686;9.158;2023-05-15T04:37:28;19.30;;;14.00;;
20758;SDS011;10539;53.686;9.158;2023-05-15T04:39:53;19.37;;;14.13;;
20758;SDS011;10539;53.686;9.158;2023-05-15T04:42:19;18.40;;;13.90;;
20758;SDS011;10539;53.686;9.158;2023-05-15T04:44:45;21.30;;;13.57;;
20758;SDS011;10539;53.686;9.158;2023-05-15T04:47:11;15.90;;;13.17;;
20758;SDS011;10539;53.686;9.158;2023-05-15T04:49:41;17.73;;;13.40;;
20758;SDS011;10539;53.686;9.158;2023-05-15T04:52:06;21.77;;;13.87;;
20758;SDS011;10539;53.686;9.158;2023-05-15T04:54:32;17.23;;;13.10;;
20758;SDS011;10539;53.686;9.158;2023-05-15T04:56:58;17.23;;;12.97;;
20758;SDS011;10539;53.686;9.158;2023-05-15T04:59:24;17.07;;;13.60;;
20758;SDS011;10539;53.686;9.158;2023-05-15T05:01:52;17.17;;;12.57;;
20758;SDS011;10539;53.686;9.158;2023-05-15T05:04:17;15.67;;;12.40;;
20758;SDS011;10539;53.686;9.158;2023-05-15T05:06:44;15.90;;;12.40;;
20758;SDS011;10539;53.686;9.158;2023-05-15T05:09:13;18.60;;;11.63;;
20758;SDS011;10539;53.686;9.158;2023-05-15T05:11:39;17.07;;;11.43;;
20758;SDS011;10539;53.686;9.158;2023-05-15T05:14:11;18.40;;;11.57;;
20758;SDS011;10539;53.686;9.158;2023-05-15T05:16:38;14.87;;;11.13;;
20758;SDS011;10539;53.686;9.158;2023-05-15T05:19:05;14.23;;;11.03;;
20758;SDS011;10539;53.686;9.158;2023-05-15T05:21:31;13.20;;;11.37;;
20758;SDS011;10539;53.686;9.158;2023-05-15T05:23:58;14.53;;;11.80;;
20758;SDS011;10539;53.686;9.158;2023-05-15T05:26:24;16.50;;;12.17;;
20758;SDS011;10539;53.686;9.158;2023-05-15T05:28:50;14.70;;;12.23;;
20758;SDS011;10539;53.686;9.158;2023-05-15T05:31:16;13.87;;;11.80;;
20758;SDS011;10539;53.686;9.158;2023-05-15T05:33:42;13.90;;;11.63;;
20758;SDS011;10539;53.686;9.158;2023-05-15T05:36:08;16.37;;;11.30;;
20758;SDS011;10539;53.686;9.158;2023-05-15T05:38:35;14.43;;;10.30;;
20758;SDS011;10539;53.686;9.158;2023-05-15T05:41:02;15.80;;;11.67;;
20758;SDS011;10539;53.686;9.158;2023-05-15T05:43:27;16.30;;;11.17;;
20758;SDS011;10539;53.686;9.158;2023-05-15T05:45:54;17.03;;;11.20;;
20758;SDS011;10539;53.686;9.158;2023-05-15T05:48:20;13.93;;;10.27;;
20758;SDS011;10539;53.686;9.158;2023-05-15T05:50:45;14.30;;;9.63;;
20758;SDS011;10539;53.686;9.158;2023-05-15T05:53:11;16.30;;;10.70;;
20758;SDS011;10539;53.686;9.158;2023-05-15T05:55:37;17.57;;;10.60;;
20758;SDS011;10539;53.686;9.158;2023-05-15T05:58:03;12.23;;;10.40;;
20758;SDS011;10539;53.686;9.158;2023-05-15T06:00:29;10.57;;;8.90;;
20758;SDS011;10539;53.686;9.158;2023-05-15T06:02:55;14.27;;;10.03;;
20758;SDS011;10539;53.686;9.158;2023-05-15T06:05:23;13.43;;;10.30;;
20758;SDS011;10539;53.686;9.158;2023-05-15T06:07:52;11.23;;;9.80;;
20758;SDS011;10539;53.686;9.158;2023-05-15T06:10:18;15.40;;;8.47;;
20758;SDS011;10539;53.686;9.158;2023-05-15T06:12:45;11.63;;;8.43;;
20758;SDS011;10539;53.686;9.158;2023-05-15T06:15:11;10.87;;;7.97;;
20758;SDS011;10539;53.686;9.158;2023-05-15T06:17:37;9.70;;;7.47;;
20758;SDS011;10539;53.686;9.158;2023-05-15T06:20:03;14.07;;;7.37;;
20758;SDS011;10539;53.686;9.158;2023-05-15T06:22:36;10.37;;;7.30;;
20758;SDS011;10539;53.686;9.158;2023-05-15T06:25:03;9.40;;;6.87;;
20758;SDS011;10539;53.686;9.158;2023-05-15T06:27:30;10.27;;;6.93;;
20758;SDS011;10539;53.686;9.158;2023-05-15T06:29:56;10.93;;;6.80;;
20758;SDS011;10539;53.686;9.158;2023-05-15T06:32:22;11.40;;;6.63;;
20758;SDS011;10539;53.686;9.158;2023-05-15T06:34:47;8.93;;;6.50;;
20758;SDS011;10539;53.686;9.158;2023-05-15T06:37:13;11.47;;;6.93;;
20758;SDS011;10539;53.686;9.158;2023-05-15T06:39:39;10.97;;;6.90;;
20758;SDS011;10539;53.686;9.158;2023-05-15T06:42:05;15.03;;;7.20;;
20758;SDS011;10539;53.686;9.158;2023-05-15T06:44:31;11.43;;;6.17;;
20758;SDS011;10539;53.686;9.158;2023-05-15T06:46:57;11.63;;;5.87;;
20758;SDS011;10539;53.686;9.158;2023-05-15T06:49:24;9.07;;;5.30;;
20758;SDS011;10539;53.686;9.158;2023-05-15T06:51:50;11.53;;;5.60;;
20758;SDS011;10539;53.686;9.158;2023-05-15T06:54:16;9.77;;;5.67;;
20758;SDS011;10539;53.686;9.158;2023-05-15T06:56:42;7.27;;;5.50;;
20758;SDS011;10539;53.686;9.158;2023-05-15T06:59:07;7.70;;;5.23;;
20758;SDS011;10539;53.686;9.158;2023-05-15T07:01:33;6.97;;;5.33;;
20758;SDS011;10539;53.686;9.158;2023-05-15T07:03:59;11.67;;;5.97;;
20758;SDS011;10539;53.686;9.158;2023-05-15T07:06:25;10.20;;;5.80;;
20758;SDS011;10539;53.686;9.158;2023-05-15T07:08:50;10.40;;;6.40;;
20758;SDS011;10539;53.686;9.158;2023-05-15T07:11:16;7.93;;;5.70;;
20758;SDS011;10539;53.686;9.158;2023-05-15T07:13:42;8.17;;;5.57;;
20758;SDS011;10539;53.686;9.158;2023-05-15T07:16:08;7.57;;;5.10;;
20758;SDS011;10539;53.686;9.158;2023-05-15T07:18:34;8.93;;;5.13;;
20758;SDS011;10539;53.686;9.158;2023-05-15T07:21:00;10.10;;;5.03;;
20758;SDS011;10539;53.686;9.158;2023-05-15T07:23:26;10.73;;;4.90;;
20758;SDS011;10539;53.686;9.158;2023-05-15T07:25:55;8.50;;;4.77;;
20758;SDS011;10539;53.686;9.158;2023-05-15T07:28:21;8.73;;;4.73;;
20758;SDS011;10539;53.686;9.158;2023-05-15T07:30:46;7.53;;;4.70;;
20758;SDS011;10539;53.686;9.158;2023-05-15T07:33:12;10.20;;;5.70;;
20758;SDS011;10539;53.686;9.158;2023-05-15T07:35:38;8.63;;;5.30;;
20758;SDS011;10539;53.686;9.158;2023-05-15T07:38:04;7.07;;;5.40;;
20758;SDS011;10539;53.686;9.158;2023-05-15T07:40:29;7.68;;;5.10;;
20758;SDS011;10539;53.686;9.158;2023-05-15T07:42:55;6.38;;;5.22;;
20758;SDS011;10539;53.686;9.158;2023-05-15T07:45:21;7.05;;;5.13;;
20758;SDS011;10539;53.686;9.158;2023-05-15T07:47:47;7.32;;;4.55;;
20758;SDS011;10539;53.686;9.158;2023-05-15T07:50:14;9.45;;;4.90;;
20758;SDS011;10539;53.686;9.158;2023-05-15T07:52:40;9.05;;;4.82;;
20758;SDS011;10539;53.686;9.158;2023-05-15T07:55:08;6.68;;;3.83;;
20758;SDS011;10539;53.686;9.158;2023-05-15T07:57:34;10.30;;;4.00;;
20758;SDS011;10539;53.686;9.158;2023-05-15T08:00:00;5.80;;;3.30;;
20758;SDS011;10539;53.686;9.158;2023-05-15T08:02:34;10.93;;;3.87;;
20758;SDS011;10539;53.686;9.158;2023-05-15T08:05:00;6.07;;;4.03;;
20758;SDS011;10539;53.686;9.158;2023-05-15T08:07:27;7.83;;;4.03;;
20758;SDS011;10539;53.686;9.158;2023-05-15T08:09:54;6.70;;;3.80;;
20758;SDS011;10539;53.686;9.158;2023-05-15T08:12:20;6.07;;;3.78;;
20758;SDS011;10539;53.686;9.158;2023-05-15T08:14:50;5.03;;;3.47;;
20758;SDS011;10539;53.686;9.158;2023-05-15T08:17:17;6.70;;;4.20;;
20758;SDS011;10539;53.686;9.158;2023-05-15T08:19:43;7.17;;;4.00;;
20758;SDS011;10539;53.686;9.158;2023-05-15T08:22:09;8.20;;;4.63;;
20758;SDS011;10539;53.686;9.158;2023-05-15T08:24:36;12.82;;;6.20;;
20758;SDS011;10539;53.686;9.158;2023-05-15T08:27:03;8.85;;;5.93;;
20758;SDS011;10539;53.686;9.158;2023-05-15T08:29:30;9.77;;;6.00;;
20758;SDS011;10539;53.686;9.158;2023-05-15T08:31:56;15.35;;;7.35;;
20758;SDS011;10539;53.686;9.158;2023-05-15T08:34:22;11.67;;;8.37;;
20758;SDS011;10539;53.686;9.158;2023-05-15T08:36:48;15.73;;;8.20;;
20758;SDS011;10539;53.686;9.158;2023-05-15T08:39:14;13.18;;;8.20;;
20758;SDS011;10539;53.686;9.158;2023-05-15T08:42:23;12.55;;;8.23;;
20758;SDS011;10539;53.686;9.158;2023-05-15T08:44:37;13.75;;;8.15;;
20758;SDS011;10539;53.686;9.158;2023-05-15T08:47:04;10.23;;;7.70;;
20758;SDS011;10539;53.686;9.158;2023-05-15T08:52:34;8.20;;;6.07;;
20758;SDS011;10539;53.686;9.158;2023-05-15T08:55:00;7.32;;;5.90;;
20758;SDS011;10539;53.686;9.158;2023-05-15T08:57:27;9.48;;;6.18;;
20758;SDS011;10539;53.686;9.158;2023-05-15T08:59:54;11.40;;;6.13;;
20758;SDS011;10539;53.686;9.158;2023-05-15T09:02:21;11.10;;;5.95;;
20758;SDS011;10539;53.686;9.158;2023-05-15T09:04:49;10.63;;;6.20;;
20758;SDS011;10539;53.686;9.158;2023-05-15T09:07:15;9.38;;;6.20;;
20758;SDS011;10539;53.686;9.158;2023-05-15T09:09:41;7.45;;;4.75;;
20758;SDS011;10539;53.686;9.158;2023-05-15T09:12:09;9.70;;;4.50;;
20758;SDS011;10539;53.686;9.158;2023-05-15T09:14:38;11.40;;;5.10;;
20758;SDS011;10539;53.686;9.158;2023-05-15T09:17:04;7.05;;;4.95;;
20758;SDS011;10539;53.686;9.158;2023-05-15T09:19:30;8.38;;;4.40;;
20758;SDS011;10539;53.686;9.158;2023-05-15T09:22:14;7.20;;;4.65;;
20758;SDS011;10539;53.686;9.158;2023-05-15T09:24:47;6.90;;;4.83;;
20758;SDS011;10539;53.686;9.158;2023-05-15T09:27:15;9.02;;;4.70;;
20758;SDS011;10539;53.686;9.158;2023-05-15T09:29:41;11.07;;;4.90;;
20758;SDS011;10539;53.686;9.158;2023-05-15T09:32:10;6.20;;;4.00;;
20758;SDS011;10539;53.686;9.158;2023-05-15T09:34:38;8.80;;;4.57;;
20758;SDS011;10539;53.686;9.158;2023-05-15T09:37:05;6.72;;;4.93;;
20758;SDS011;10539;53.686;9.158;2023-05-15T09:39:34;7.07;;;5.57;;
20758;SDS011;10539;53.686;9.158;2023-05-15T09:42:10;10.35;;;6.88;;
20758;SDS011;10539;53.686;9.158;2023-05-15T09:44:44;11.73;;;6.47;;
20758;SDS011;10539;53.686;9.158;2023-05-15T09:47:13;10.88;;;7.07;;
20758;SDS011;10539;53.686;9.158;2023-05-15T09:49:44;10.93;;;7.28;;
20758;SDS011;10539;53.686;9.158;2023-05-15T09:52:11;13.38;;;7.88;;
20758;SDS011;10539;53.686;9.158;2023-05-15T09:54:37;14.98;;;8.05;;
20758;SDS011;10539;53.686;9.158;2023-05-15T09:57:09;10.90;;;6.97;;
20758;SDS011;10539;53.686;9.158;2023-05-15T09:59:43;14.10;;;8.27;;
20758;SDS011;10539;53.686;9.158;2023-05-15T10:02:12;13.65;;;7.63;;
20758;SDS011;10539;53.686;9.158;2023-05-15T10:04:54;11.75;;;8.10;;
20758;SDS011;10539;53.686;9.158;2023-05-15T10:07:30;12.60;;;9.40;;
20758;SDS011;10539;53.686;9.158;2023-05-15T10:09:57;11.55;;;8.77;;
20758;SDS011;10539;53.686;9.158;2023-05-15T10:12:24;13.70;;;8.90;;
20758;SDS011;10539;53.686;9.158;2023-05-15T10:14:51;13.88;;;9.50;;
20758;SDS011;10539;53.686;9.158;2023-05-15T10:17:20;12.90;;;8.63;;
20758;SDS011;10539;53.686;9.158;2023-05-15T10:19:47;18.80;;;10.27;;
20758;SDS011;10539;53.686;9.158;2023-05-15T10:22:15;13.70;;;9.85;;
20758;SDS011;10539;53.686;9.158;2023-05-15T10:24:47;17.00;;;10.10;;
20758;SDS011;10539;53.686;9.158;2023-05-15T10:27:16;22.10;;;9.63;;
20758;SDS011;10539;53.686;9.158;2023-05-15T10:29:43;16.95;;;10.50;;
20758;SDS011;10539;53.686;9.158;2023-05-15T10:32:11;17.45;;;10.82;;
20758;SDS011;10539;53.686;9.158;2023-05-15T10:34:38;20.02;;;12.25;;
20758;SDS011;10539;53.686;9.158;2023-05-15T10:37:04;20.60;;;12.10;;
20758;SDS011;10539;53.686;9.158;2023-05-15T10:39:30;21.02;;;11.90;;
20758;SDS011;10539;53.686;9.158;2023-05-15T10:41:59;20.15;;;12.27;;
20758;SDS011;10539;53.686;9.158;2023-05-15T10:44:26;18.33;;;12.65;;
20758;SDS011;10539;53.686;9.158;2023-05-15T10:46:52;16.50;;;11.35;;
20758;SDS011;10539;53.686;9.158;2023-05-15T10:49:18;17.95;;;11.70;;
20758;SDS011;10539;53.686;9.158;2023-05-15T10:51:43;16.92;;;12.07;;
20758;SDS011;10539;53.686;9.158;2023-05-15T10:54:09;18.90;;;12.57;;
20758;SDS011;10539;53.686;9.158;2023-05-15T10:56:36;22.45;;;14.30;;
20758;SDS011;10539;53.686;9.158;2023-05-15T10:59:07;23.38;;;14.65;;
20758;SDS011;10539;53.686;9.158;2023-05-15T11:01:38;22.35;;;14.40;;
20758;SDS011;10539;53.686;9.158;2023-05-15T11:04:11;20.38;;;13.88;;
20758;SDS011;10539;53.686;9.158;2023-05-15T11:06:38;26.73;;;14.88;;
20758;SDS011;10539;53.686;9.158;2023-05-15T11:09:40;21.70;;;14.18;;
20758;SDS011;10539;53.686;9.158;2023-05-15T11:12:03;19.98;;;13.30;;
20758;SDS011;10539;53.686;9.158;2023-05-15T11:14:30;17.73;;;12.68;;
20758;SDS011;10539;53.686;9.158;2023-05-15T11:16:59;21.23;;;13.37;;
20758;SDS011;10539;53.686;9.158;2023-05-15T11:21:56;19.85;;;12.75;;
20758;SDS011;10539;53.686;9.158;2023-05-15T11:24:29;16.38;;;11.43;;
20758;SDS011;10539;53.686;9.158;2023-05-15T11:27:02;15.27;;;11.18;;
20758;SDS011;10539;53.686;9.158;2023-05-15T11:29:29;15.70;;;11.57;;
20758;SDS011;10539;53.686;9.158;2023-05-15T11:31:55;18.48;;;12.23;;
20758;SDS011;10539;53.686;9.158;2023-05-15T11:34:27;20.75;;;12.48;;
20758;SDS011;10539;53.686;9.158;2023-05-15T11:37:08;19.70;;;13.80;;
20758;SDS011;10539;53.686;9.158;2023-05-15T11:39:42;20.45;;;11.23;;
20758;SDS011;10539;53.686;9.158;2023-05-15T11:42:11;21.45;;;13.32;;
20758;SDS011;10539;53.686;9.158;2023-05-15T11:44:37;22.30;;;13.50;;
20758;SDS011;10539;53.686;9.158;2023-05-15T11:47:08;17.77;;;12.35;;
20758;SDS011;10539;53.686;9.158;2023-05-15T11:49:34;17.38;;;11.93;;
20758;SDS011;10539;53.686;9.158;2023-05-15T11:52:02;21.70;;;14.50;;
20758;SDS011;10539;53.686;9.158;2023-05-15T11:54:28;22.20;;;13.50;;
20758;SDS011;10539;53.686;9.158;2023-05-15T11:56:56;20.10;;;12.70;;
20758;SDS011;10539;53.686;9.158;2023-05-15T11:59:21;18.58;;;12.07;;
20758;SDS011;10539;53.686;9.158;2023-05-15T12:01:51;16.55;;;11.10;;
20758;SDS011;10539;53.686;9.158;2023-05-15T12:04:17;16.48;;;12.07;;
20758;SDS011;10539;53.686;9.158;2023-05-15T12:06:43;16.83;;;12.77;;
20758;SDS011;10539;53.686;9.158;2023-05-15T12:09:15;20.13;;;12.45;;
20758;SDS011;10539;53.686;9.158;2023-05-15T12:11:50;17.63;;;12.55;;
20758;SDS011;10539;53.686;9.158;2023-05-15T12:14:16;15.55;;;11.70;;
20758;SDS011;10539;53.686;9.158;2023-05-15T12:16:42;16.55;;;12.48;;
20758;SDS011;10539;53.686;9.158;2023-05-15T12:19:07;21.85;;;12.90;;
20758;SDS011;10539;53.686;9.158;2023-05-15T12:21:34;19.30;;;13.07;;
20758;SDS011;10539;53.686;9.158;2023-05-15T12:24:09;18.80;;;12.73;;
20758;SDS011;10539;53.686;9.158;2023-05-15T12:26:35;20.65;;;13.35;;
20758;SDS011;10539;53.686;9.158;2023-05-15T12:29:02;21.90;;;13.43;;
20758;SDS011;10539;53.686;9.158;2023-05-15T12:31:28;20.63;;;13.97;;
20758;SDS011;10539;53.686;9.158;2023-05-15T12:33:55;26.20;;;14.43;;
20758;SDS011;10539;53.686;9.158;2023-05-15T12:36:20;21.42;;;14.57;;
20758;SDS011;10539;53.686;9.158;2023-05-15T12:38:47;21.10;;;12.73;;
20758;SDS011;10539;53.686;9.158;2023-05-15T12:41:13;20.70;;;13.88;;
20758;SDS011;10539;53.686;9.158;2023-05-15T12:43:40;21.73;;;13.15;;
20758;SDS011;10539;53.686;9.158;2023-05-15T12:46:05;20.73;;;14.27;;
20758;SDS011;10539;53.686;9.158;2023-05-15T12:48:32;21.88;;;14.60;;
20758;SDS011;10539;53.686;9.158;2023-05-15T12:51:04;20.33;;;13.57;;
20758;SDS011;10539;53.686;9.158;2023-05-15T12:53:31;16.42;;;12.70;;
20758;SDS011;10539;53.686;9.158;2023-05-15T12:56:00;22.13;;;13.57;;
20758;SDS011;10539;53.686;9.158;2023-05-15T12:58:26;22.27;;;14.97;;
20758;SDS011;10539;53.686;9.158;2023-05-15T13:00:52;16.17;;;12.40;;
20758;SDS011;10539;53.686;9.158;2023-05-15T13:03:19;20.10;;;13.13;;
20758;SDS011;10539;53.686;9.158;2023-05-15T13:05:46;22.33;;;13.63;;
20758;SDS011;10539;53.686;9.158;2023-05-15T13:08:15;15.52;;;11.63;;
20758;SDS011;10539;53.686;9.158;2023-05-15T13:10:42;19.48;;;11.80;;
20758;SDS011;10539;53.686;9.158;2023-05-15T13:13:08;17.13;;;11.50;;
20758;SDS011;10539;53.686;9.158;2023-05-15T13:15:38;15.50;;;11.13;;
20758;SDS011;10539;53.686;9.158;2023-05-15T13:18:08;15.57;;;10.48;;
20758;SDS011;10539;53.686;9.158;2023-05-15T13:20:43;14.10;;;10.10;;
20758;SDS011;10539;53.686;9.158;2023-05-15T13:23:14;19.80;;;11.47;;
20758;SDS011;10539;53.686;9.158;2023-05-15T13:25:42;15.30;;;11.70;;
20758;SDS011;10539;53.686;9.158;2023-05-15T13:28:08;15.03;;;11.20;;
20758;SDS011;10539;53.686;9.158;2023-05-15T13:30:35;15.57;;;11.53;;
20758;SDS011;10539;53.686;9.158;2023-05-15T13:33:03;20.77;;;12.50;;
20758;SDS011;10539;53.686;9.158;2023-05-15T13:35:29;14.40;;;9.80;;
20758;SDS011;10539;53.686;9.158;2023-05-15T13:37:55;14.03;;;9.17;;
20758;SDS011;10539;53.686;9.158;2023-05-15T13:40:21;11.17;;;8.60;;
20758;SDS011;10539;53.686;9.158;2023-05-15T13:42:47;15.57;;;8.87;;
20758;SDS011;10539;53.686;9.158;2023-05-15T13:45:14;13.87;;;8.83;;
20758;SDS011;10539;53.686;9.158;2023-05-15T13:47:41;12.47;;;8.23;;
20758;SDS011;10539;53.686;9.158;2023-05-15T13:50:07;13.43;;;9.70;;
20758;SDS011;10539;53.686;9.158;2023-05-15T13:52:34;14.03;;;8.40;;
20758;SDS011;10539;53.686;9.158;2023-05-15T13:55:00;10.87;;;7.90;;
20758;SDS011;10539;53.686;9.158;2023-05-15T13:57:27;11.23;;;7.40;;
20758;SDS011;10539;53.686;9.158;2023-05-15T13:59:53;10.33;;;7.70;;
20758;SDS011;10539;53.686;9.158;2023-05-15T14:02:20;14.50;;;8.53;;
20758;SDS011;10539;53.686;9.158;2023-05-15T14:04:50;13.10;;;8.00;;
20758;SDS011;10539;53.686;9.158;2023-05-15T14:07:16;16.00;;;9.10;;
20758;SDS011;10539;53.686;9.158;2023-05-15T14:09:42;13.47;;;9.63;;
20758;SDS011;10539;53.686;9.158;2023-05-15T14:12:08;10.87;;;8.73;;
20758;SDS011;10539;53.686;9.158;2023-05-15T14:14:34;13.20;;;7.27;;
20758;SDS011;10539;53.686;9.158;2023-05-15T14:16:59;10.93;;;7.50;;
20758;SDS011;10539;53.686;9.158;2023-05-15T14:19:25;13.20;;;8.80;;
20758;SDS011;10539;53.686;9.158;2023-05-15T14:21:51;14.13;;;8.77;;
20758;SDS011;10539;53.686;9.158;2023-05-15T14:24:16;11.77;;;8.03;;
20758;SDS011;10539;53.686;9.158;2023-05-15T14:26:42;10.07;;;7.37;;
20758;SDS011;10539;53.686;9.158;2023-05-15T14:29:10;10.53;;;6.93;;
20758;SDS011;10539;53.686;9.158;2023-05-15T14:31:35;10.70;;;5.93;;
20758;SDS011;10539;53.686;9.158;2023-05-15T14:34:01;8.07;;;5.50;;
20758;SDS011;10539;53.686;9.158;2023-05-15T14:36:29;11.70;;;5.90;;
20758;SDS011;10539;53.686;9.158;2023-05-15T14:38:55;10.13;;;5.30;;
20758;SDS011;10539;53.686;9.158;2023-05-15T14:41:20;8.03;;;5.13;;
20758;SDS011;10539;53.686;9.158;2023-05-15T14:43:46;14.03;;;5.60;;
20758;SDS011;10539;53.686;9.158;2023-05-15T14:46:12;8.23;;;4.80;;
20758;SDS011;10539;53.686;9.158;2023-05-15T14:48:37;7.83;;;4.73;;